Time;durP1;ratioP1;P1;durP2;ratioP2;P2;SDS_P1;SDS_P2;PMS_P1;PMS_P2;Temp;Humidity;BMP_temperature;BMP_pressure;BME280_temperature;BME280_humidity;BME280_pressure;Samples;Min_cycle;Max_cycle;Signal;HPM_P1;HPM_P2
2022/01/03 05:02:37;;;;;;;5.80;1.58;;;9.30;99.90;;;;;;4952849;28;90264;-75
2022/01/03 05:05:04;;;;;;;8.48;1.65;;;9.20;99.90;;;;;;4957863;28;90194;-75
2022/01/03 05:07:30;;;;;;;14.13;2.08;;;9.20;99.90;;;;;;4941082;28;92440;-75
2022/01/03 05:09:55;;;;;;;7.75;1.77;;;9.30;99.90;;;;;;4944147;28;92727;-75
2022/01/03 05:12:21;;;;;;;11.45;2.00;;;9.20;99.90;;;;;;4962332;28;89480;-75
2022/01/03 05:14:47;;;;;;;8.63;2.05;;;9.20;99.90;;;;;;4995460;22;92673;-71
2022/01/03 05:17:13;;;;;;;9.70;1.63;;;9.30;99.90;;;;;;4979816;28;90304;-71
2022/01/03 05:19:38;;;;;;;6.70;1.70;;;9.30;99.90;;;;;;4979249;28;89948;-72
2022/01/03 05:22:04;;;;;;;5.10;1.15;;;9.40;99.90;;;;;;4980732;28;89238;-72
2022/01/03 05:24:33;;;;;;;7.60;1.85;;;9.60;99.90;;;;;;4980495;28;89755;-72
2022/01/03 05:26:58;;;;;;;6.20;1.50;;;9.80;99.90;;;;;;4979172;28;91905;-72
2022/01/03 05:29:24;;;;;;;6.20;1.02;;;9.80;99.90;;;;;;4980120;28;89910;-72
2022/01/03 05:31:49;;;;;;;5.95;1.10;;;9.90;99.90;;;;;;4980459;28;89612;-72
2022/01/03 05:34:15;;;;;;;8.23;1.63;;;10.00;99.90;;;;;;4980223;28;89606;-71
2022/01/03 05:36:40;;;;;;;7.43;1.58;;;10.10;99.90;;;;;;4980220;28;89237;-71
2022/01/03 05:39:06;;;;;;;8.02;1.63;;;10.00;99.90;;;;;;4978774;28;89747;-72
2022/01/03 05:41:32;;;;;;;9.40;1.75;;;9.90;99.90;;;;;;4980063;28;90168;-72
2022/01/03 05:43:58;;;;;;;7.30;1.88;;;10.00;99.90;;;;;;4979695;28;89633;-72
2022/01/03 05:46:24;;;;;;;8.02;1.27;;;10.00;99.90;;;;;;4979401;28;90146;-72
2022/01/03 05:48:50;;;;;;;6.00;1.20;;;10.10;99.90;;;;;;4980178;28;89871;-72
2022/01/03 05:51:16;;;;;;;8.23;1.80;;;10.10;99.90;;;;;;4980234;28;89602;-72
2022/01/03 05:53:41;;;;;;;7.25;1.48;;;10.10;99.90;;;;;;4979559;28;89383;-72
2022/01/03 05:56:07;;;;;;;5.28;1.30;;;10.10;99.90;;;;;;4980242;28;90118;-71
2022/01/03 05:58:33;;;;;;;5.60;1.27;;;10.10;99.90;;;;;;4980260;28;90193;-72
2022/01/03 06:01:00;;;;;;;5.80;1.40;;;10.10;99.90;;;;;;4978289;28;89196;-72
2022/01/03 06:03:27;;;;;;;6.55;1.25;;;10.20;99.90;;;;;;4977904;28;91351;-71
2022/01/03 06:08:22;;;;;;;4.72;1.25;;;10.10;99.90;;;;;;4979709;28;89357;-72
2022/01/03 06:10:47;;;;;;;7.97;1.40;;;10.10;99.90;;;;;;4979863;28;89240;-72
2022/01/03 06:13:14;;;;;;;8.02;1.60;;;10.10;99.90;;;;;;4979117;28;89389;-71
2022/01/03 06:15:40;;;;;;;8.57;1.73;;;10.10;99.90;;;;;;4979664;28;89890;-72
2022/01/03 06:18:11;;;;;;;6.72;1.40;;;10.10;99.90;;;;;;4979329;28;89206;-72
2022/01/03 06:20:41;;;;;;;8.02;1.30;;;10.00;99.90;;;;;;4979559;28;89282;-72
2022/01/03 06:23:09;;;;;;;8.55;1.92;;;9.90;99.90;;;;;;4978398;28;91823;-72
2022/01/03 06:25:35;;;;;;;5.32;1.45;;;9.80;99.90;;;;;;4979542;28;89258;-71
2022/01/03 06:28:00;;;;;;;7.18;1.60;;;9.90;99.90;;;;;;4979494;28;89322;-71
2022/01/03 06:30:26;;;;;;;9.77;1.40;;;9.90;99.90;;;;;;4979186;28;90235;-71
2022/01/03 06:32:52;;;;;;;6.32;1.75;;;9.90;99.90;;;;;;4977557;28;93000;-71
2022/01/03 06:35:18;;;;;;;8.40;1.60;;;9.90;99.90;;;;;;4979474;28;89132;-71
2022/01/03 06:37:43;;;;;;;7.95;1.50;;;9.90;99.90;;;;;;4979500;28;89205;-71
2022/01/03 06:40:09;;;;;;;8.40;1.73;;;9.90;99.90;;;;;;4979893;28;89373;-72
2022/01/03 06:42:35;;;;;;;9.60;1.70;;;10.00;99.90;;;;;;4977087;28;91077;-71
2022/01/03 06:45:01;;;;;;;8.27;1.60;;;10.00;99.90;;;;;;4978866;28;89165;-71
2022/01/03 06:47:26;;;;;;;6.70;1.35;;;10.00;99.90;;;;;;4979591;28;88861;-71
2022/01/03 06:49:53;;;;;;;5.93;1.23;;;10.00;99.90;;;;;;4979112;28;89572;-72
2022/01/03 06:52:19;;;;;;;9.35;2.15;;;10.10;99.90;;;;;;4978551;28;90330;-72
2022/01/03 06:54:44;;;;;;;6.93;1.40;;;10.10;99.90;;;;;;4978068;28;90883;-72
2022/01/03 06:57:11;;;;;;;9.40;1.92;;;10.00;99.90;;;;;;4978382;28;89540;-72
2022/01/03 06:59:37;;;;;;;10.77;2.15;;;10.00;99.90;;;;;;4979007;28;89652;-71
2022/01/03 07:02:04;;;;;;;9.15;1.75;;;10.10;99.90;;;;;;4978467;28;89310;-71
2022/01/03 07:04:30;;;;;;;9.20;1.52;;;10.10;99.90;;;;;;4976964;28;91555;-73
2022/01/03 07:06:55;;;;;;;6.97;1.75;;;10.00;99.90;;;;;;4979073;28;89225;-73
2022/01/03 07:09:21;;;;;;;9.10;1.70;;;10.00;99.90;;;;;;4985925;28;89848;-73
2022/01/03 07:11:46;;;;;;;8.32;1.50;;;10.00;99.90;;;;;;5013714;28;91947;-72
2022/01/03 07:19:38;;;;;;;12.38;1.80;;;10.10;99.90;;;;;;4997837;28;90589;-73
2022/01/03 07:22:07;;;;;;;7.53;1.33;;;10.00;99.90;;;;;;4998462;28;90018;-72
2022/01/03 07:24:34;;;;;;;9.23;2.25;;;10.00;99.90;;;;;;4998125;28;89327;-72
2022/01/03 07:27:05;;;;;;;8.90;2.15;;;10.00;99.90;;;;;;4998494;28;89521;-72
2022/01/03 07:29:31;;;;;;;11.05;1.90;;;10.20;99.90;;;;;;5014008;28;89670;-72
2022/01/03 07:31:57;;;;;;;8.07;1.80;;;10.20;99.90;;;;;;4998592;28;91162;-72
2022/01/03 07:34:23;;;;;;;10.13;2.17;;;10.30;99.90;;;;;;5012090;28;91301;-72
2022/01/03 07:36:48;;;;;;;6.82;1.95;;;10.30;99.90;;;;;;5014117;28;91105;-73
2022/01/03 07:39:14;;;;;;;7.32;1.38;;;10.30;99.90;;;;;;4998835;28;89375;-72
2022/01/03 07:41:39;;;;;;;9.05;1.85;;;10.40;99.90;;;;;;5013828;28;91189;-72
2022/01/03 07:44:05;;;;;;;7.55;1.40;;;10.50;99.90;;;;;;4997655;28;90221;-72
2022/01/03 07:46:30;;;;;;;12.63;2.00;;;10.50;99.90;;;;;;4998594;28;89345;-72
2022/01/03 07:48:56;;;;;;;8.73;1.75;;;10.60;99.90;;;;;;4998329;28;89274;-72
2022/01/03 07:51:22;;;;;;;7.95;1.42;;;10.50;99.90;;;;;;4998121;28;89923;-73
2022/01/03 07:53:48;;;;;;;6.45;1.67;;;10.60;99.90;;;;;;4997595;28;89974;-71
2022/01/03 07:56:13;;;;;;;7.50;2.33;;;10.60;99.90;;;;;;4998061;28;89071;-71
2022/01/03 07:58:39;;;;;;;8.02;1.52;;;10.60;99.90;;;;;;4998175;28;89187;-71
2022/01/03 08:01:05;;;;;;;9.98;2.10;;;10.60;99.90;;;;;;4998417;28;89022;-71
2022/01/03 08:03:31;;;;;;;8.00;1.58;;;10.60;99.90;;;;;;4997761;28;89768;-71
2022/01/03 08:05:57;;;;;;;7.65;1.52;;;10.50;99.90;;;;;;4997987;28;90177;-71
2022/01/03 08:08:23;;;;;;;7.60;1.90;;;10.50;99.90;;;;;;5013070;28;90214;-71
2022/01/03 08:10:49;;;;;;;11.07;1.85;;;10.50;99.90;;;;;;4997978;28;89273;-71
2022/01/03 08:13:15;;;;;;;7.07;1.83;;;10.50;99.90;;;;;;4997113;28;90042;-71
2022/01/03 08:15:40;;;;;;;7.80;1.77;;;10.50;99.90;;;;;;4998120;28;89281;-71
2022/01/03 08:18:07;;;;;;;11.90;2.05;;;10.50;99.90;;;;;;4998060;28;89330;-71
2022/01/03 08:20:33;;;;;;;6.95;1.70;;;10.50;99.90;;;;;;5012773;28;91746;-71
2022/01/03 08:22:59;;;;;;;8.82;1.92;;;10.40;99.90;;;;;;4997128;28;89681;-71
2022/01/03 08:25:24;;;;;;;7.10;1.45;;;10.30;99.90;;;;;;4979774;28;89100;-71
2022/01/03 08:27:50;;;;;;;10.63;2.00;;;10.00;99.90;;;;;;4967636;28;89516;-71
2022/01/03 08:30:16;;;;;;;10.60;2.40;;;9.70;99.90;;;;;;4968321;28;89365;-71
2022/01/03 08:32:42;;;;;;;10.07;2.05;;;9.40;99.90;;;;;;4964980;28;90988;-71
2022/01/03 08:35:08;;;;;;;5.53;1.13;;;9.20;99.90;;;;;;4957338;28;91177;-71
2022/01/03 08:37:34;;;;;;;4.75;1.20;;;9.10;99.90;;;;;;4956826;28;89420;-71
2022/01/03 08:40:04;;;;;;;9.85;1.80;;;9.10;99.90;;;;;;4957986;28;89256;-71
2022/01/03 08:42:34;;;;;;;6.28;1.40;;;8.90;99.90;;;;;;4957891;28;89269;-72
2022/01/03 08:45:01;;;;;;;5.90;1.30;;;8.90;99.90;;;;;;4959383;28;90137;-71
2022/01/03 08:47:27;;;;;;;5.10;1.40;;;8.90;99.90;;;;;;4961727;28;89281;-71
2022/01/03 08:49:53;;;;;;;8.75;2.00;;;8.80;99.90;;;;;;4961612;28;90172;-71
2022/01/03 08:52:18;;;;;;;6.97;1.52;;;8.80;99.90;;;;;;4960488;28;89291;-71
2022/01/03 08:54:44;;;;;;;8.48;1.30;;;8.80;99.90;;;;;;4974010;28;90298;-71
2022/01/03 08:57:10;;;;;;;9.73;1.65;;;8.80;99.90;;;;;;4966575;28;90148;-71
2022/01/03 08:59:36;;;;;;;6.55;1.42;;;8.90;99.90;;;;;;4980849;28;89246;-71
2022/01/03 09:02:01;;;;;;;8.32;1.70;;;8.90;99.90;;;;;;4980183;28;89237;-71
2022/01/03 09:04:28;;;;;;;7.97;1.67;;;9.00;99.90;;;;;;4977113;28;90312;-71
2022/01/03 09:06:53;;;;;;;8.98;2.33;;;9.00;99.90;;;;;;4981015;28;89358;-71
2022/01/03 09:09:19;;;;;;;11.88;2.55;;;9.10;99.90;;;;;;4979133;28;89836;-71
2022/01/03 09:11:45;;;;;;;11.68;3.05;;;9.10;99.90;;;;;;4980321;28;90339;-71
2022/01/03 09:14:11;;;;;;;10.00;1.70;;;9.20;99.90;;;;;;4980758;28;89846;-71
2022/01/03 09:16:37;;;;;;;11.90;1.90;;;9.20;99.90;;;;;;4980414;28;89186;-71
2022/01/03 09:19:03;;;;;;;6.38;1.90;;;9.40;99.90;;;;;;4964042;28;89272;-71
2022/01/03 09:21:29;;;;;;;9.88;2.00;;;9.50;99.90;;;;;;4960485;28;90128;-71
2022/01/03 09:24:16;;;;;;;9.88;1.85;;;9.50;99.90;;;;;;4980905;28;90510;-71
2022/01/03 09:29:24;;;;;;;8.90;2.00;;;9.70;99.90;;;;;;4960587;28;89408;-71
2022/01/03 09:31:50;;;;;;;7.47;1.92;;;9.80;99.90;;;;;;4960766;28;89990;-71
2022/01/03 09:34:15;;;;;;;9.50;2.50;;;9.80;99.90;;;;;;4960464;28;89634;-72
2022/01/03 09:36:41;;;;;;;7.80;2.13;;;9.80;99.90;;;;;;4960650;28;89347;-72
2022/01/03 09:39:07;;;;;;;10.27;2.33;;;9.90;99.90;;;;;;4960634;28;89705;-71
2022/01/03 09:41:33;;;;;;;8.00;1.85;;;9.90;99.90;;;;;;4970351;28;90468;-71
2022/01/03 09:44:05;;;;;;;8.55;2.47;;;10.00;99.90;;;;;;4979495;28;89240;-72
2022/01/03 09:47:02;;;;;;;8.40;1.70;;;10.00;99.90;;;;;;4979594;28;90126;-72
2022/01/03 09:49:32;;;;;;;7.97;2.03;;;10.10;99.90;;;;;;4979398;28;89493;-71
2022/01/03 09:51:59;;;;;;;6.78;1.58;;;10.20;99.90;;;;;;4980065;28;90732;-71
2022/01/03 09:54:26;;;;;;;6.18;1.85;;;10.20;99.90;;;;;;4979386;28;90163;-71
2022/01/03 09:56:52;;;;;;;10.02;2.13;;;10.30;99.90;;;;;;4978572;28;89817;-71
2022/01/03 09:59:18;;;;;;;7.97;1.67;;;10.30;99.90;;;;;;4979625;28;89724;-71
2022/01/03 10:01:44;;;;;;;9.98;1.92;;;10.30;99.90;;;;;;4979393;28;91232;-71
2022/01/03 10:04:12;;;;;;;9.43;2.15;;;10.30;99.90;;;;;;4978244;28;91801;-72
2022/01/03 10:06:39;;;;;;;8.80;1.80;;;10.30;99.90;;;;;;4979703;28;89278;-71
2022/01/03 10:09:04;;;;;;;6.72;1.50;;;10.30;99.90;;;;;;4978614;28;91473;-72
2022/01/03 10:11:30;;;;;;;11.52;2.15;;;10.30;99.90;;;;;;4978816;28;91083;-71
2022/01/03 10:13:56;;;;;;;9.18;1.83;;;10.30;99.90;;;;;;4977422;28;92328;-71
2022/01/03 10:16:21;;;;;;;5.63;1.40;;;10.40;99.90;;;;;;4979707;28;89672;-72
2022/01/03 10:18:48;;;;;;;8.77;1.95;;;10.40;99.90;;;;;;4979336;28;89368;-71
2022/01/03 10:21:42;;;;;;;6.28;1.90;;;10.50;99.90;;;;;;4978641;28;90361;-71
2022/01/03 10:24:09;;;;;;;8.35;2.10;;;10.60;99.90;;;;;;4979213;28;89857;-71
2022/01/03 10:26:37;;;;;;;9.20;1.75;;;10.60;99.90;;;;;;4978302;28;89449;-71
2022/01/03 10:29:17;;;;;;;8.15;2.35;;;10.70;99.90;;;;;;4979847;28;88896;-71
2022/01/03 10:31:45;;;;;;;8.15;1.83;;;10.60;99.90;;;;;;4978759;28;89316;-71
2022/01/03 10:34:14;;;;;;;9.90;1.63;;;10.60;99.90;;;;;;4979165;28;89425;-71
2022/01/03 10:36:42;;;;;;;7.90;2.05;;;10.50;99.90;;;;;;4978847;28;90222;-72
2022/01/03 10:39:37;;;;;;;9.35;2.60;;;10.40;99.90;;;;;;4979559;28;89711;-72
2022/01/03 10:42:13;;;;;;;9.98;1.67;;;10.30;99.90;;;;;;4969505;28;90400;-71
2022/01/03 10:44:43;;;;;;;6.40;1.85;;;10.30;99.90;;;;;;4979059;28;89302;-74
2022/01/03 10:47:14;;;;;;;11.32;2.63;;;10.40;99.90;;;;;;4980267;28;89220;-72
2022/01/03 10:49:43;;;;;;;5.95;1.80;;;10.40;99.90;;;;;;4978855;28;91309;-77
2022/01/03 10:52:33;;;;;;;7.30;1.88;;;10.50;99.90;;;;;;4983421;28;89435;-75
2022/01/03 10:55:34;;;;;;;10.13;1.83;;;10.60;99.90;;;;;;4972860;28;89072;-69
2022/01/03 10:58:01;;;;;;;8.93;2.10;;;10.70;99.90;;;;;;4980582;28;88978;-69
2022/01/03 11:00:33;;;;;;;11.30;2.45;;;10.80;99.90;;;;;;4978119;28;91611;-71
2022/01/03 11:06:02;;;;;;;11.90;1.98;;;10.80;99.90;;;;;;4977920;28;90546;-70
2022/01/03 11:11:15;;;;;;;7.82;1.80;;;10.80;99.90;;;;;;4978676;28;89517;-71
2022/01/03 11:13:47;;;;;;;8.27;1.95;;;10.80;99.90;;;;;;5001560;22;89587;-76
2022/01/03 11:16:13;;;;;;;5.95;1.73;;;10.80;99.90;;;;;;4997313;28;89288;-76
2022/01/03 11:18:45;;;;;;;8.63;2.10;;;10.80;99.90;;;;;;4996339;28;89332;-76
2022/01/03 11:21:16;;;;;;;13.65;2.03;;;10.80;99.90;;;;;;4998110;28;89845;-77
2022/01/03 11:23:58;;;;;;;8.00;2.28;;;10.80;99.90;;;;;;4992230;28;89391;-76
2022/01/03 11:26:25;;;;;;;7.05;1.77;;;10.90;99.90;;;;;;4976717;28;89655;-77
2022/01/03 11:28:51;;;;;;;6.35;1.70;;;11.00;99.90;;;;;;4978087;28;90141;-76
2022/01/03 11:31:19;;;;;;;6.00;1.48;;;11.00;99.90;;;;;;4978071;28;89686;-77
2022/01/03 11:33:46;;;;;;;11.07;2.45;;;11.10;99.90;;;;;;4978056;28;89492;-77
2022/01/03 11:36:12;;;;;;;9.57;1.70;;;11.10;99.90;;;;;;4976827;28;92648;-77
2022/01/03 11:38:40;;;;;;;7.85;1.70;;;11.20;99.90;;;;;;4978568;28;89269;-76
2022/01/03 11:41:09;;;;;;;9.35;2.20;;;11.20;99.90;;;;;;4976817;28;91543;-76
2022/01/03 11:43:36;;;;;;;6.97;1.50;;;11.30;99.90;;;;;;4977686;28;90405;-76
2022/01/03 11:46:03;;;;;;;8.35;2.33;;;11.30;99.90;;;;;;4978614;28;89757;-76
2022/01/03 11:48:29;;;;;;;10.27;1.75;;;11.40;99.90;;;;;;4978515;28;89246;-76
2022/01/03 11:50:59;;;;;;;4.43;1.40;;;11.50;99.90;;;;;;4977550;28;90258;-78
2022/01/03 11:53:25;;;;;;;7.82;1.55;;;11.50;99.90;;;;;;4975981;28;92788;-76
2022/01/03 11:55:53;;;;;;;10.23;2.33;;;11.60;99.90;;;;;;4978148;28;90729;-76
2022/01/03 11:58:43;;;;;;;6.57;1.60;;;11.60;99.90;;;;;;4978003;28;89291;-76
2022/01/03 12:03:55;;;;;;;7.28;1.77;;;11.60;99.90;;;;;;4978560;28;89608;-76
2022/01/03 12:06:34;;;;;;;7.82;2.17;;;11.60;99.90;;;;;;4976962;28;92088;-76
2022/01/03 12:09:07;;;;;;;8.52;1.95;;;11.70;99.90;;;;;;4978177;28;89575;-76
2022/01/03 12:11:33;;;;;;;9.40;2.20;;;11.70;99.90;;;;;;4977897;28;89830;-77
2022/01/03 12:14:10;;;;;;;8.73;2.40;;;11.70;99.90;;;;;;4976979;28;89361;-76
2022/01/03 12:16:53;;;;;;;9.10;2.10;;;11.80;99.90;;;;;;4978163;28;89730;-74
2022/01/03 12:19:21;;;;;;;5.75;1.70;;;11.90;99.90;;;;;;4977122;28;90523;-74
2022/01/03 12:21:50;;;;;;;7.20;1.80;;;11.90;99.90;;;;;;4977301;28;89210;-73
2022/01/03 12:24:27;;;;;;;8.50;2.13;;;12.00;99.90;;;;;;4975782;28;91941;-73
2022/01/03 12:27:11;;;;;;;8.15;2.35;;;12.10;99.90;;;;;;4978172;28;89308;-73
2022/01/03 12:29:55;;;;;;;4.95;1.50;;;12.10;99.90;;;;;;4978302;28;89400;-73
2022/01/03 12:33:00;;;;;;;6.63;1.90;;;12.10;99.90;;;;;;4980705;28;89491;-73
2022/01/03 12:35:26;;;;;;;7.18;1.60;;;12.10;99.90;;;;;;4954314;28;89390;-73
2022/01/03 12:37:54;;;;;;;10.75;1.65;;;12.10;99.90;;;;;;4976675;28;90210;-72
2022/01/03 12:40:25;;;;;;;5.50;1.60;;;12.10;99.90;;;;;;4976628;28;89359;-72
2022/01/03 12:43:00;;;;;;;7.38;1.83;;;12.10;99.90;;;;;;4976957;28;89305;-73
2022/01/03 12:45:28;;;;;;;6.13;1.77;;;12.10;99.90;;;;;;4976722;28;91039;-73
2022/01/03 12:47:54;;;;;;;7.38;1.65;;;12.10;99.90;;;;;;4977837;28;90582;-73
2022/01/03 12:50:27;;;;;;;8.70;1.58;;;12.10;99.90;;;;;;4977853;28;89302;-74
2022/01/03 12:52:54;;;;;;;6.88;1.77;;;12.10;99.90;;;;;;4991505;28;91719;-74
2022/01/03 12:55:41;;;;;;;5.25;1.63;;;12.10;99.90;;;;;;4977306;28;89244;-74
2022/01/03 12:58:18;;;;;;;6.38;1.95;;;12.10;99.90;;;;;;4977527;28;89570;-74
2022/01/03 13:00:54;;;;;;;5.18;1.45;;;12.10;99.90;;;;;;4977462;28;89319;-73
2022/01/03 13:03:20;;;;;;;7.53;2.03;;;12.10;99.90;;;;;;4976957;28;89677;-74
2022/01/03 13:06:07;;;;;;;7.20;2.28;;;12.10;99.90;;;;;;4975814;28;92346;-73
2022/01/03 13:08:39;;;;;;;10.32;2.00;;;12.10;99.90;;;;;;4977378;28;89508;-74
2022/01/03 13:11:09;;;;;;;6.55;1.70;;;12.10;99.90;;;;;;4977034;28;90445;-74
2022/01/03 13:13:38;;;;;;;5.45;1.60;;;12.00;99.90;;;;;;4976567;28;89685;-73
2022/01/03 13:16:25;;;;;;;8.18;1.70;;;12.00;99.90;;;;;;4974926;28;93063;-74
2022/01/03 13:19:06;;;;;;;5.93;1.70;;;12.00;99.90;;;;;;4975959;28;91008;-74
2022/01/03 13:21:36;;;;;;;5.22;1.45;;;11.90;99.90;;;;;;4977386;28;89317;-74
2022/01/03 13:24:07;;;;;;;9.10;2.53;;;11.80;99.90;;;;;;4976524;28;89676;-74
2022/01/03 13:26:33;;;;;;;6.65;2.20;;;11.80;99.90;;;;;;4975415;28;92990;-74
2022/01/03 13:29:01;;;;;;;6.78;2.15;;;11.70;99.90;;;;;;4977636;28;88953;-73
2022/01/03 13:31:27;;;;;;;21.90;11.57;;;11.60;99.90;;;;;;4977698;28;89328;-74
2022/01/03 13:34:01;;;;;;;5.88;2.03;;;11.60;99.90;;;;;;4983300;28;90382;-74
2022/01/03 13:36:36;;;;;;;6.28;1.85;;;11.60;99.90;;;;;;4974638;28;91286;-73
2022/01/03 13:39:05;;;;;;;5.53;1.58;;;11.60;99.90;;;;;;4972082;28;92902;-75
2022/01/03 13:41:35;;;;;;;10.65;5.53;;;11.60;99.90;;;;;;5001258;28;89307;-74
2022/01/03 13:44:00;;;;;;;10.18;2.95;;;11.50;99.90;;;;;;4980774;28;90193;-74
2022/01/03 13:49:22;;;;;;;6.95;1.65;;;11.60;99.90;;;;;;4991278;28;89326;-75
2022/01/03 13:51:49;;;;;;;8.85;1.92;;;11.60;99.90;;;;;;4992264;28;89493;-74
2022/01/03 13:54:33;;;;;;;6.72;1.90;;;11.50;99.90;;;;;;4973660;28;89802;-73
2022/01/03 13:57:04;;;;;;;5.85;1.63;;;11.50;99.90;;;;;;4997401;28;90979;-74
2022/01/03 13:59:35;;;;;;;7.43;2.03;;;11.50;99.90;;;;;;4976449;28;89543;-75
2022/01/03 14:02:02;;;;;;;6.18;1.88;;;11.50;99.90;;;;;;4964856;28;90245;-74
2022/01/03 14:04:35;;;;;;;6.88;2.13;;;11.50;99.90;;;;;;4982167;28;89792;-73
2022/01/03 14:07:06;;;;;;;6.20;1.75;;;11.50;99.90;;;;;;4997657;28;91223;-74
2022/01/03 14:09:48;;;;;;;6.57;1.55;;;11.40;99.90;;;;;;4999534;28;89324;-75
2022/01/03 14:12:15;;;;;;;5.00;1.70;;;11.40;99.90;;;;;;4989648;28;89564;-74
2022/01/03 14:14:45;;;;;;;6.93;1.88;;;11.50;99.90;;;;;;4973225;28;89633;-74
2022/01/03 14:17:12;;;;;;;5.60;1.50;;;11.40;99.90;;;;;;4991263;28;92890;-74
2022/01/03 14:19:41;;;;;;;7.28;1.95;;;11.40;99.90;;;;;;4996453;28;90688;-74
2022/01/03 14:22:12;;;;;;;6.15;1.40;;;11.40;99.90;;;;;;4989862;28;89373;-73
2022/01/03 14:24:55;;;;;;;8.30;2.03;;;11.40;99.90;;;;;;4976707;28;92344;-75
2022/01/03 14:27:20;;;;;;;6.38;1.95;;;11.30;99.90;;;;;;4978895;28;90953;-74
2022/01/03 14:29:46;;;;;;;9.07;3.30;;;11.30;99.90;;;;;;4977850;28;92289;-73
2022/01/03 14:32:15;;;;;;;4.07;1.63;;;11.20;99.90;;;;;;4978068;28;89222;-75
2022/01/03 14:34:52;;;;;;;5.88;1.80;;;11.20;99.90;;;;;;4978859;28;89369;-74
2022/01/03 14:37:27;;;;;;;5.00;1.30;;;11.20;99.90;;;;;;4979637;28;89298;-74
2022/01/03 14:39:54;;;;;;;3.58;1.23;;;11.10;99.90;;;;;;4978971;28;89569;-74
2022/01/03 14:42:22;;;;;;;4.63;1.40;;;11.10;99.90;;;;;;4978712;28;89192;-75
2022/01/03 14:44:48;;;;;;;4.68;1.50;;;11.10;99.90;;;;;;4979066;28;89105;-74
2022/01/03 14:47:14;;;;;;;4.50;1.60;;;11.10;99.90;;;;;;4977752;28;92701;-74
2022/01/03 14:49:55;;;;;;;6.00;1.70;;;11.10;99.90;;;;;;4986939;28;89586;-75
2022/01/03 14:52:34;;;;;;;5.47;1.60;;;11.20;99.90;;;;;;4998117;28;90512;-74
2022/01/03 14:55:01;;;;;;;5.75;1.48;;;11.30;99.90;;;;;;4992809;28;89388;-75
2022/01/03 14:57:30;;;;;;;5.32;2.08;;;11.40;99.90;;;;;;4999084;28;90547;-74
2022/01/03 14:59:59;;;;;;;7.72;1.48;;;11.40;99.90;;;;;;4984165;28;89174;-74
2022/01/03 15:02:26;;;;;;;4.75;1.30;;;11.40;99.90;;;;;;4994940;28;89352;-75
2022/01/03 15:04:53;;;;;;;3.90;1.27;;;11.40;99.90;;;;;;4996592;28;89801;-74
2022/01/03 15:07:20;;;;;;;4.43;1.40;;;11.40;99.90;;;;;;4959499;28;90134;-74
2022/01/03 15:09:46;;;;;;;5.03;1.10;;;11.40;99.90;;;;;;4976835;28;90069;-74
2022/01/03 15:12:12;;;;;;;4.53;1.27;;;11.30;99.90;;;;;;4978643;28;89269;-74
2022/01/03 15:14:37;;;;;;;5.78;1.40;;;11.30;99.90;;;;;;4978108;28;90126;-75
2022/01/03 15:17:03;;;;;;;5.65;1.55;;;11.20;99.90;;;;;;4977873;28;91144;-74
2022/01/03 15:19:29;;;;;;;7.80;1.77;;;11.20;99.90;;;;;;4979011;28;90946;-73
2022/01/03 15:21:57;;;;;;;4.47;1.60;;;11.00;99.90;;;;;;4977423;28;89337;-73
2022/01/03 15:24:23;;;;;;;3.65;1.30;;;11.00;99.90;;;;;;4977648;28;89398;-74
2022/01/03 15:26:48;;;;;;;5.07;1.70;;;11.00;99.90;;;;;;4977071;28;92923;-74
2022/01/03 15:29:14;;;;;;;5.10;1.38;;;11.00;99.90;;;;;;4994303;28;89871;-74
2022/01/03 15:31:40;;;;;;;7.35;1.90;;;10.90;99.90;;;;;;4998187;28;89290;-74
2022/01/03 15:34:06;;;;;;;4.63;1.40;;;10.90;99.90;;;;;;4983925;28;89653;-74
2022/01/03 15:36:32;;;;;;;6.72;1.52;;;11.00;99.90;;;;;;4972511;28;89177;-75
2022/01/03 15:38:58;;;;;;;6.75;1.50;;;11.00;99.90;;;;;;4982656;28;89944;-73
2022/01/03 15:41:24;;;;;;;5.88;1.60;;;10.90;99.90;;;;;;4980758;28;90119;-74
2022/01/03 15:43:49;;;;;;;4.82;1.40;;;11.00;99.90;;;;;;4974917;28;93069;-74
2022/01/03 15:46:15;;;;;;;6.63;1.35;;;11.00;99.90;;;;;;4977236;28;89812;-74
2022/01/03 15:48:40;;;;;;;5.00;1.50;;;11.00;99.90;;;;;;4978057;28;89974;-74
2022/01/03 15:51:06;;;;;;;7.93;1.60;;;10.90;99.90;;;;;;4978395;28;89301;-75
2022/01/03 15:53:32;;;;;;;4.22;1.63;;;10.80;99.90;;;;;;4977400;28;89754;-74
2022/01/03 15:55:58;;;;;;;5.45;1.60;;;10.70;99.90;;;;;;4977607;28;90351;-74
2022/01/03 15:58:24;;;;;;;5.72;1.77;;;10.70;99.90;;;;;;4978614;28;89573;-75
2022/01/03 16:00:50;;;;;;;5.63;1.85;;;10.60;99.90;;;;;;4978668;28;89187;-75
2022/01/03 16:03:17;;;;;;;4.55;1.63;;;10.50;99.90;;;;;;4977401;28;89735;-75
2022/01/03 16:05:43;;;;;;;5.95;1.60;;;10.40;99.90;;;;;;4981296;28;93989;-74
2022/01/03 16:08:11;;;;;;;6.25;2.08;;;10.30;99.90;;;;;;4998658;28;89331;-75
2022/01/03 16:10:37;;;;;;;4.78;1.45;;;10.20;99.90;;;;;;4998787;28;89524;-74
2022/01/03 16:13:02;;;;;;;4.82;1.63;;;10.10;99.90;;;;;;4992610;28;89309;-74
2022/01/03 16:15:28;;;;;;;4.60;1.52;;;10.10;99.90;;;;;;4990835;28;89862;-75
2022/01/03 16:17:54;;;;;;;6.10;1.98;;;10.00;99.90;;;;;;4998185;28;89470;-75
2022/01/03 16:20:20;;;;;;;7.40;1.88;;;9.90;99.90;;;;;;4988421;28;89243;-75
2022/01/03 16:22:45;;;;;;;5.72;1.42;;;9.70;99.90;;;;;;4994964;28;92471;-74
2022/01/03 16:25:11;;;;;;;7.65;1.92;;;9.70;99.90;;;;;;4987985;28;91908;-74
2022/01/03 16:27:40;;;;;;;5.70;1.50;;;9.70;99.90;;;;;;5013240;28;91178;-74
2022/01/03 16:30:09;;;;;;;5.38;1.30;;;9.80;99.90;;;;;;4993968;28;90596;-75
2022/01/03 16:32:38;;;;;;;4.88;1.60;;;9.80;99.90;;;;;;4996911;28;90756;-75
2022/01/03 16:35:10;;;;;;;7.00;1.85;;;9.90;99.90;;;;;;4978083;28;89253;-76
2022/01/03 16:37:39;;;;;;;7.78;1.58;;;9.90;99.90;;;;;;4996862;28;89345;-74
2022/01/03 16:40:16;;;;;;;4.78;1.50;;;9.90;99.90;;;;;;4999414;28;89694;-75
2022/01/03 16:42:44;;;;;;;5.68;1.60;;;9.90;99.90;;;;;;4995683;28;90796;-75
2022/01/03 16:45:09;;;;;;;3.13;1.40;;;9.90;99.90;;;;;;4976189;28;91063;-75
2022/01/03 16:47:36;;;;;;;3.83;1.80;;;10.00;99.90;;;;;;4979550;28;89009;-74
2022/01/03 16:50:04;;;;;;;3.97;1.45;;;10.10;99.90;;;;;;4978032;28;89230;-74
2022/01/03 16:52:30;;;;;;;2.97;1.52;;;10.20;99.90;;;;;;4978613;28;89709;-75
2022/01/03 16:54:55;;;;;;;4.28;1.75;;;10.20;99.90;;;;;;4994735;28;90938;-74
2022/01/03 16:57:24;;;;;;;5.28;1.63;;;10.10;99.90;;;;;;4997761;28;92124;-74
2022/01/03 16:59:49;;;;;;;3.58;1.80;;;10.00;99.90;;;;;;5000370;28;89261;-75
2022/01/03 17:02:15;;;;;;;4.88;1.70;;;10.00;99.90;;;;;;4999578;28;89201;-75
2022/01/03 17:04:41;;;;;;;4.82;1.85;;;9.90;99.90;;;;;;4992601;28;89988;-75
2022/01/03 17:07:06;;;;;;;5.60;2.60;;;9.90;99.90;;;;;;5001925;28;89569;-75
2022/01/03 17:09:32;;;;;;;5.45;1.50;;;9.90;99.90;;;;;;5001567;28;89280;-74
2022/01/03 17:11:57;;;;;;;7.93;1.70;;;9.80;99.90;;;;;;5000480;28;89912;-73
2022/01/03 17:14:23;;;;;;;4.45;1.30;;;9.90;99.90;;;;;;5015222;22;90866;-75
2022/01/03 17:16:49;;;;;;;5.60;1.80;;;9.80;99.90;;;;;;4999536;28;89315;-75
2022/01/03 17:19:15;;;;;;;3.00;1.85;;;9.80;99.90;;;;;;4999688;28;90188;-75
2022/01/03 17:21:40;;;;;;;5.85;2.40;;;9.80;99.90;;;;;;4997466;28;89932;-75
2022/01/03 17:24:06;;;;;;;8.13;2.78;;;9.70;99.90;;;;;;4994221;28;90834;-75
2022/01/03 17:26:32;;;;;;;4.90;2.50;;;9.70;99.90;;;;;;4994212;28;89488;-75
2022/01/03 17:28:58;;;;;;;6.20;2.30;;;9.70;99.90;;;;;;4992562;28;89302;-75
2022/01/03 17:31:24;;;;;;;6.80;2.70;;;9.60;99.90;;;;;;4980244;28;89972;-75
2022/01/03 17:33:49;;;;;;;3.65;1.63;;;9.60;99.90;;;;;;4988339;28;91174;-75
2022/01/03 17:36:15;;;;;;;4.43;1.40;;;9.70;99.90;;;;;;5000468;28;89735;-75
2022/01/03 17:38:41;;;;;;;5.75;2.10;;;9.70;99.90;;;;;;5000431;28;89236;-75
2022/01/03 17:41:06;;;;;;;6.90;1.50;;;9.80;99.90;;;;;;4988530;28;92641;-75
2022/01/03 17:43:32;;;;;;;4.85;1.45;;;10.00;99.90;;;;;;4986787;28;90294;-75
2022/01/03 17:45:59;;;;;;;3.63;1.50;;;10.10;99.90;;;;;;4999687;28;91041;-75
2022/01/03 17:48:25;;;;;;;4.78;2.80;;;10.10;99.90;;;;;;5000254;28;89262;-75
2022/01/03 17:50:50;;;;;;;7.72;4.07;;;10.10;99.90;;;;;;5000164;28;89913;-75
2022/01/03 17:53:16;;;;;;;4.60;2.65;;;10.10;99.90;;;;;;4997761;28;92436;-75
2022/01/03 17:55:43;;;;;;;7.13;3.25;;;10.10;99.90;;;;;;4999613;28;89185;-75
2022/01/03 17:58:09;;;;;;;4.82;2.75;;;10.10;99.90;;;;;;4987351;28;89201;-74
2022/01/03 18:00:36;;;;;;;5.95;2.22;;;10.00;99.90;;;;;;4980218;28;89105;-74
2022/01/03 18:03:02;;;;;;;4.18;1.50;;;10.10;99.90;;;;;;4989858;28;89442;-75
2022/01/03 18:05:28;;;;;;;4.55;2.28;;;10.10;99.90;;;;;;4999445;28;89240;-75
2022/01/03 18:07:54;;;;;;;7.47;2.25;;;10.10;99.90;;;;;;4999611;28;90221;-75
2022/01/03 18:10:20;;;;;;;5.28;2.10;;;10.10;99.90;;;;;;4998132;28;90103;-75
2022/01/03 18:12:55;;;;;;;3.70;1.50;;;10.10;99.90;;;;;;4997097;28;90555;-75
2022/01/03 18:15:20;;;;;;;4.72;1.90;;;10.10;99.90;;;;;;4998813;28;90143;-75
2022/01/03 18:17:46;;;;;;;3.80;1.77;;;10.10;99.90;;;;;;4998750;28;89295;-75